sensor_id;sensor_type;location;lat;lon;timestamp;P1;durP1;ratioP1;P2;durP2;ratioP2
3779;SDS011;1905;52.482;9.802;2023-03-20T00:00:26;21.23;;;11.50;;
3779;SDS011;1905;52.482;9.802;2023-03-20T00:02:59;18.83;;;11.73;;
3779;SDS011;1905;52.482;9.802;2023-03-20T00:05:28;21.03;;;12.23;;
3779;SDS011;1905;52.482;9.802;2023-03-20T00:07:57;17.20;;;11.60;;
3779;SDS011;1905;52.482;9.802;2023-03-20T00:10:26;17.50;;;11.27;;
3779;SDS011;1905;52.482;9.802;2023-03-20T00:12:58;19.27;;;12.00;;
3779;SDS011;1905;52.482;9.802;2023-03-20T00:15:27;18.97;;;11.37;;
3779;SDS011;1905;52.482;9.802;2023-03-20T00:17:57;30.43;;;13.70;;
3779;SDS011;1905;52.482;9.802;2023-03-20T00:20:26;24.67;;;13.67;;
3779;SDS011;1905;52.482;9.802;2023-03-20T00:22:56;25.07;;;13.90;;
3779;SDS011;1905;52.482;9.802;2023-03-20T00:25:24;25.67;;;14.20;;
3779;SDS011;1905;52.482;9.802;2023-03-20T00:27:52;24.30;;;15.73;;
3779;SDS011;1905;52.482;9.802;2023-03-20T00:30:23;28.83;;;14.70;;
3779;SDS011;1905;52.482;9.802;2023-03-20T00:32:54;29.10;;;15.37;;
3779;SDS011;1905;52.482;9.802;2023-03-20T00:35:24;34.37;;;17.00;;
3779;SDS011;1905;52.482;9.802;2023-03-20T00:37:55;34.00;;;13.80;;
3779;SDS011;1905;52.482;9.802;2023-03-20T00:40:25;28.63;;;15.43;;
3779;SDS011;1905;52.482;9.802;2023-03-20T00:42:57;30.50;;;15.40;;
3779;SDS011;1905;52.482;9.802;2023-03-20T00:45:28;28.70;;;14.93;;
3779;SDS011;1905;52.482;9.802;2023-03-20T00:47:57;37.63;;;15.80;;
3779;SDS011;1905;52.482;9.802;2023-03-20T00:50:29;29.20;;;14.43;;
3779;SDS011;1905;52.482;9.802;2023-03-20T00:52:57;24.57;;;14.43;;
3779;SDS011;1905;52.482;9.802;2023-03-20T00:55:26;30.70;;;14.70;;
3779;SDS011;1905;52.482;9.802;2023-03-20T00:57:56;26.33;;;14.70;;
3779;SDS011;1905;52.482;9.802;2023-03-20T01:03:14;31.00;;;14.63;;
3779;SDS011;1905;52.482;9.802;2023-03-20T01:05:47;32.60;;;16.17;;
3779;SDS011;1905;52.482;9.802;2023-03-20T01:08:16;28.83;;;15.87;;
3779;SDS011;1905;52.482;9.802;2023-03-20T01:10:48;31.73;;;15.93;;
3779;SDS011;1905;52.482;9.802;2023-03-20T01:13:18;32.10;;;17.47;;
3779;SDS011;1905;52.482;9.802;2023-03-20T01:15:48;26.90;;;15.37;;
3779;SDS011;1905;52.482;9.802;2023-03-20T01:18:17;30.40;;;14.73;;
3779;SDS011;1905;52.482;9.802;2023-03-20T01:20:47;29.90;;;15.53;;
3779;SDS011;1905;52.482;9.802;2023-03-20T01:23:15;27.83;;;15.10;;
3779;SDS011;1905;52.482;9.802;2023-03-20T01:25:43;32.87;;;15.63;;
3779;SDS011;1905;52.482;9.802;2023-03-20T01:28:12;31.80;;;16.47;;
3779;SDS011;1905;52.482;9.802;2023-03-20T01:30:42;36.80;;;15.57;;
3779;SDS011;1905;52.482;9.802;2023-03-20T01:33:12;29.77;;;14.87;;
3779;SDS011;1905;52.482;9.802;2023-03-20T01:35:43;26.57;;;13.47;;
3779;SDS011;1905;52.482;9.802;2023-03-20T01:38:14;30.67;;;16.30;;
3779;SDS011;1905;52.482;9.802;2023-03-20T01:40:48;35.97;;;17.60;;
3779;SDS011;1905;52.482;9.802;2023-03-20T01:43:20;34.90;;;16.60;;
3779;SDS011;1905;52.482;9.802;2023-03-20T01:45:55;33.30;;;15.63;;
3779;SDS011;1905;52.482;9.802;2023-03-20T01:48:32;28.73;;;16.60;;
3779;SDS011;1905;52.482;9.802;2023-03-20T01:51:23;26.00;;;13.70;;
3779;SDS011;1905;52.482;9.802;2023-03-20T01:53:57;34.90;;;15.90;;
3779;SDS011;1905;52.482;9.802;2023-03-20T01:56:29;31.13;;;16.27;;
3779;SDS011;1905;52.482;9.802;2023-03-20T01:59:02;30.70;;;15.17;;
3779;SDS011;1905;52.482;9.802;2023-03-20T02:01:32;37.40;;;16.20;;
3779;SDS011;1905;52.482;9.802;2023-03-20T02:04:02;35.60;;;16.17;;
3779;SDS011;1905;52.482;9.802;2023-03-20T02:06:48;37.53;;;14.17;;
3779;SDS011;1905;52.482;9.802;2023-03-20T02:09:40;28.10;;;14.57;;
3779;SDS011;1905;52.482;9.802;2023-03-20T02:12:13;30.27;;;13.70;;
3779;SDS011;1905;52.482;9.802;2023-03-20T02:14:41;27.50;;;13.60;;
3779;SDS011;1905;52.482;9.802;2023-03-20T02:17:21;28.00;;;13.20;;
3779;SDS011;1905;52.482;9.802;2023-03-20T02:19:57;27.93;;;13.53;;
3779;SDS011;1905;52.482;9.802;2023-03-20T02:22:38;29.60;;;12.87;;
3779;SDS011;1905;52.482;9.802;2023-03-20T02:25:33;27.80;;;12.60;;
3779;SDS011;1905;52.482;9.802;2023-03-20T02:28:39;32.93;;;13.33;;
3779;SDS011;1905;52.482;9.802;2023-03-20T02:35:01;23.93;;;10.50;;
3779;SDS011;1905;52.482;9.802;2023-03-20T02:37:48;27.60;;;13.30;;
3779;SDS011;1905;52.482;9.802;2023-03-20T02:40:31;17.53;;;9.97;;
3779;SDS011;1905;52.482;9.802;2023-03-20T02:43:06;19.53;;;10.13;;
3779;SDS011;1905;52.482;9.802;2023-03-20T02:45:48;26.77;;;11.57;;
3779;SDS011;1905;52.482;9.802;2023-03-20T02:48:26;20.80;;;10.53;;
3779;SDS011;1905;52.482;9.802;2023-03-20T02:51:03;20.03;;;10.57;;
3779;SDS011;1905;52.482;9.802;2023-03-20T02:53:41;20.13;;;10.90;;
3779;SDS011;1905;52.482;9.802;2023-03-20T02:56:21;19.17;;;9.00;;
3779;SDS011;1905;52.482;9.802;2023-03-20T02:58:57;22.87;;;10.40;;
3779;SDS011;1905;52.482;9.802;2023-03-20T03:01:34;22.67;;;9.37;;
3779;SDS011;1905;52.482;9.802;2023-03-20T03:04:03;15.47;;;9.07;;
3779;SDS011;1905;52.482;9.802;2023-03-20T03:06:36;18.43;;;8.77;;
3779;SDS011;1905;52.482;9.802;2023-03-20T03:09:11;19.23;;;9.00;;
3779;SDS011;1905;52.482;9.802;2023-03-20T03:11:44;16.37;;;8.33;;
3779;SDS011;1905;52.482;9.802;2023-03-20T03:14:18;16.87;;;8.90;;
3779;SDS011;1905;52.482;9.802;2023-03-20T03:16:56;14.90;;;8.10;;
3779;SDS011;1905;52.482;9.802;2023-03-20T03:19:26;17.13;;;9.07;;
3779;SDS011;1905;52.482;9.802;2023-03-20T03:21:55;16.60;;;7.13;;
3779;SDS011;1905;52.482;9.802;2023-03-20T03:24:27;15.17;;;7.17;;
3779;SDS011;1905;52.482;9.802;2023-03-20T03:27:06;9.37;;;5.47;;
3779;SDS011;1905;52.482;9.802;2023-03-20T03:29:42;13.43;;;6.63;;
3779;SDS011;1905;52.482;9.802;2023-03-20T03:32:20;15.00;;;8.00;;
3779;SDS011;1905;52.482;9.802;2023-03-20T03:34:51;16.67;;;7.60;;
3779;SDS011;1905;52.482;9.802;2023-03-20T03:37:20;11.80;;;6.57;;
3779;SDS011;1905;52.482;9.802;2023-03-20T03:39:58;16.30;;;6.57;;
3779;SDS011;1905;52.482;9.802;2023-03-20T03:42:36;11.20;;;6.17;;
3779;SDS011;1905;52.482;9.802;2023-03-20T03:45:07;9.80;;;6.03;;
3779;SDS011;1905;52.482;9.802;2023-03-20T03:47:38;10.30;;;5.73;;
3779;SDS011;1905;52.482;9.802;2023-03-20T03:50:11;13.80;;;6.00;;
3779;SDS011;1905;52.482;9.802;2023-03-20T03:52:44;12.17;;;5.97;;
3779;SDS011;1905;52.482;9.802;2023-03-20T03:55:17;12.10;;;5.60;;
3779;SDS011;1905;52.482;9.802;2023-03-20T03:58:03;16.13;;;6.67;;
3779;SDS011;1905;52.482;9.802;2023-03-20T04:00:36;11.13;;;6.70;;
3779;SDS011;1905;52.482;9.802;2023-03-20T04:03:08;13.83;;;7.10;;
3779;SDS011;1905;52.482;9.802;2023-03-20T04:05:36;14.70;;;6.10;;
3779;SDS011;1905;52.482;9.802;2023-03-20T04:08:08;15.97;;;7.93;;
3779;SDS011;1905;52.482;9.802;2023-03-20T04:10:40;11.50;;;6.10;;
3779;SDS011;1905;52.482;9.802;2023-03-20T04:13:08;17.57;;;7.60;;
3779;SDS011;1905;52.482;9.802;2023-03-20T04:15:35;15.83;;;7.73;;
3779;SDS011;1905;52.482;9.802;2023-03-20T04:18:05;15.63;;;6.03;;
3779;SDS011;1905;52.482;9.802;2023-03-20T04:20:33;18.17;;;8.00;;
3779;SDS011;1905;52.482;9.802;2023-03-20T04:23:03;13.30;;;7.63;;
3779;SDS011;1905;52.482;9.802;2023-03-20T04:25:31;16.40;;;7.20;;
3779;SDS011;1905;52.482;9.802;2023-03-20T04:28:01;11.10;;;6.33;;
3779;SDS011;1905;52.482;9.802;2023-03-20T04:30:35;20.50;;;8.10;;
3779;SDS011;1905;52.482;9.802;2023-03-20T04:33:16;18.20;;;8.87;;
3779;SDS011;1905;52.482;9.802;2023-03-20T04:35:57;27.60;;;10.00;;
3779;SDS011;1905;52.482;9.802;2023-03-20T04:38:25;16.73;;;7.87;;
3779;SDS011;1905;52.482;9.802;2023-03-20T04:40:53;18.83;;;9.73;;
3779;SDS011;1905;52.482;9.802;2023-03-20T04:43:22;20.60;;;9.37;;
3779;SDS011;1905;52.482;9.802;2023-03-20T04:45:50;19.43;;;10.10;;
3779;SDS011;1905;52.482;9.802;2023-03-20T04:48:19;18.40;;;9.40;;
3779;SDS011;1905;52.482;9.802;2023-03-20T04:50:47;20.77;;;10.27;;
3779;SDS011;1905;52.482;9.802;2023-03-20T04:53:19;24.60;;;10.80;;
3779;SDS011;1905;52.482;9.802;2023-03-20T04:55:49;24.30;;;9.80;;
3779;SDS011;1905;52.482;9.802;2023-03-20T04:58:17;20.37;;;10.07;;
3779;SDS011;1905;52.482;9.802;2023-03-20T05:00:46;26.17;;;10.77;;
3779;SDS011;1905;52.482;9.802;2023-03-20T05:03:13;23.50;;;10.70;;
3779;SDS011;1905;52.482;9.802;2023-03-20T05:05:42;22.97;;;10.57;;
3779;SDS011;1905;52.482;9.802;2023-03-20T05:08:10;25.60;;;10.57;;
3779;SDS011;1905;52.482;9.802;2023-03-20T05:10:38;18.90;;;10.20;;
3779;SDS011;1905;52.482;9.802;2023-03-20T05:13:28;17.67;;;10.43;;
3779;SDS011;1905;52.482;9.802;2023-03-20T05:16:19;29.80;;;12.00;;
3779;SDS011;1905;52.482;9.802;2023-03-20T05:19:05;31.73;;;11.13;;
3779;SDS011;1905;52.482;9.802;2023-03-20T05:21:47;29.47;;;12.03;;
3779;SDS011;1905;52.482;9.802;2023-03-20T05:24:33;22.57;;;11.23;;
3779;SDS011;1905;52.482;9.802;2023-03-20T05:27:32;30.50;;;10.33;;
3779;SDS011;1905;52.482;9.802;2023-03-20T05:30:06;27.00;;;10.60;;
3779;SDS011;1905;52.482;9.802;2023-03-20T05:33:07;22.30;;;12.40;;
3779;SDS011;1905;52.482;9.802;2023-03-20T05:35:54;21.90;;;9.80;;
3779;SDS011;1905;52.482;9.802;2023-03-20T05:38:44;27.40;;;12.67;;
3779;SDS011;1905;52.482;9.802;2023-03-20T05:41:37;28.70;;;10.87;;
3779;SDS011;1905;52.482;9.802;2023-03-20T05:44:25;29.20;;;12.30;;
3779;SDS011;1905;52.482;9.802;2023-03-20T05:47:11;27.77;;;12.73;;
3779;SDS011;1905;52.482;9.802;2023-03-20T05:50:03;28.70;;;13.53;;
3779;SDS011;1905;52.482;9.802;2023-03-20T05:52:54;29.50;;;11.90;;
3779;SDS011;1905;52.482;9.802;2023-03-20T05:55:39;23.60;;;12.10;;
3779;SDS011;1905;52.482;9.802;2023-03-20T05:58:30;27.60;;;11.47;;
3779;SDS011;1905;52.482;9.802;2023-03-20T06:01:16;32.07;;;11.30;;
3779;SDS011;1905;52.482;9.802;2023-03-20T06:04:15;27.07;;;11.03;;
3779;SDS011;1905;52.482;9.802;2023-03-20T06:07:17;28.07;;;13.60;;
3779;SDS011;1905;52.482;9.802;2023-03-20T06:09:54;29.27;;;12.20;;
3779;SDS011;1905;52.482;9.802;2023-03-20T06:12:22;31.20;;;13.10;;
3779;SDS011;1905;52.482;9.802;2023-03-20T06:14:49;21.13;;;10.60;;
3779;SDS011;1905;52.482;9.802;2023-03-20T06:17:18;28.10;;;11.70;;
3779;SDS011;1905;52.482;9.802;2023-03-20T06:19:51;28.73;;;15.97;;
3779;SDS011;1905;52.482;9.802;2023-03-20T06:22:20;28.40;;;13.07;;
3779;SDS011;1905;52.482;9.802;2023-03-20T06:24:47;24.57;;;12.97;;
3779;SDS011;1905;52.482;9.802;2023-03-20T06:27:15;26.60;;;13.90;;
3779;SDS011;1905;52.482;9.802;2023-03-20T06:29:46;26.27;;;13.47;;
3779;SDS011;1905;52.482;9.802;2023-03-20T06:32:18;26.37;;;10.93;;
3779;SDS011;1905;52.482;9.802;2023-03-20T06:34:49;28.20;;;15.50;;
3779;SDS011;1905;52.482;9.802;2023-03-20T06:37:16;32.40;;;14.97;;
3779;SDS011;1905;52.482;9.802;2023-03-20T06:39:46;31.83;;;13.23;;
3779;SDS011;1905;52.482;9.802;2023-03-20T06:42:14;29.03;;;14.60;;
3779;SDS011;1905;52.482;9.802;2023-03-20T06:44:44;31.23;;;13.40;;
3779;SDS011;1905;52.482;9.802;2023-03-20T06:47:14;28.53;;;14.00;;
3779;SDS011;1905;52.482;9.802;2023-03-20T06:49:42;29.20;;;13.53;;
3779;SDS011;1905;52.482;9.802;2023-03-20T06:52:13;27.07;;;12.83;;
3779;SDS011;1905;52.482;9.802;2023-03-20T06:54:47;29.10;;;14.10;;
3779;SDS011;1905;52.482;9.802;2023-03-20T06:57:16;22.63;;;12.00;;
3779;SDS011;1905;52.482;9.802;2023-03-20T06:59:44;27.67;;;12.70;;
3779;SDS011;1905;52.482;9.802;2023-03-20T07:02:11;26.30;;;12.00;;
3779;SDS011;1905;52.482;9.802;2023-03-20T07:04:40;25.20;;;12.33;;
3779;SDS011;1905;52.482;9.802;2023-03-20T07:07:08;29.23;;;12.57;;
3779;SDS011;1905;52.482;9.802;2023-03-20T07:09:35;31.23;;;13.20;;
3779;SDS011;1905;52.482;9.802;2023-03-20T07:12:04;22.23;;;12.63;;
3779;SDS011;1905;52.482;9.802;2023-03-20T07:14:40;26.27;;;12.27;;
3779;SDS011;1905;52.482;9.802;2023-03-20T07:17:12;28.40;;;13.53;;
3779;SDS011;1905;52.482;9.802;2023-03-20T07:19:40;29.27;;;13.10;;
3779;SDS011;1905;52.482;9.802;2023-03-20T07:22:08;24.20;;;12.40;;
3779;SDS011;1905;52.482;9.802;2023-03-20T07:24:46;24.60;;;10.47;;
3779;SDS011;1905;52.482;9.802;2023-03-20T07:27:15;22.70;;;9.90;;
3779;SDS011;1905;52.482;9.802;2023-03-20T07:29:43;24.50;;;11.07;;
3779;SDS011;1905;52.482;9.802;2023-03-20T07:32:15;30.03;;;12.20;;
3779;SDS011;1905;52.482;9.802;2023-03-20T07:34:48;21.53;;;10.10;;
3779;SDS011;1905;52.482;9.802;2023-03-20T07:37:17;22.60;;;10.47;;
3779;SDS011;1905;52.482;9.802;2023-03-20T07:39:55;19.40;;;12.67;;
3779;SDS011;1905;52.482;9.802;2023-03-20T07:42:30;17.37;;;8.90;;
3779;SDS011;1905;52.482;9.802;2023-03-20T07:45:09;23.47;;;12.47;;
3779;SDS011;1905;52.482;9.802;2023-03-20T07:47:37;20.30;;;11.50;;
3779;SDS011;1905;52.482;9.802;2023-03-20T07:50:04;18.90;;;9.73;;
3779;SDS011;1905;52.482;9.802;2023-03-20T07:52:33;23.97;;;8.90;;
3779;SDS011;1905;52.482;9.802;2023-03-20T07:55:01;22.53;;;9.80;;
3779;SDS011;1905;52.482;9.802;2023-03-20T07:57:28;19.37;;;9.70;;
3779;SDS011;1905;52.482;9.802;2023-03-20T07:59:57;22.90;;;11.70;;
3779;SDS011;1905;52.482;9.802;2023-03-20T08:02:25;19.90;;;9.63;;
3779;SDS011;1905;52.482;9.802;2023-03-20T08:04:52;15.83;;;9.83;;
3779;SDS011;1905;52.482;9.802;2023-03-20T08:07:20;20.03;;;10.07;;
3779;SDS011;1905;52.482;9.802;2023-03-20T08:09:47;20.80;;;10.30;;
3779;SDS011;1905;52.482;9.802;2023-03-20T08:12:15;21.43;;;9.83;;
3779;SDS011;1905;52.482;9.802;2023-03-20T08:14:42;20.53;;;10.60;;
3779;SDS011;1905;52.482;9.802;2023-03-20T08:17:11;23.23;;;9.40;;
3779;SDS011;1905;52.482;9.802;2023-03-20T08:19:43;23.67;;;9.67;;
3779;SDS011;1905;52.482;9.802;2023-03-20T08:22:11;20.77;;;10.13;;
3779;SDS011;1905;52.482;9.802;2023-03-20T08:24:39;16.77;;;9.13;;
3779;SDS011;1905;52.482;9.802;2023-03-20T08:27:07;22.13;;;8.80;;
3779;SDS011;1905;52.482;9.802;2023-03-20T08:29:35;19.03;;;9.40;;
3779;SDS011;1905;52.482;9.802;2023-03-20T08:32:02;23.77;;;10.00;;
3779;SDS011;1905;52.482;9.802;2023-03-20T08:34:31;23.70;;;10.73;;
3779;SDS011;1905;52.482;9.802;2023-03-20T08:37:01;23.43;;;10.67;;
3779;SDS011;1905;52.482;9.802;2023-03-20T08:39:30;22.10;;;10.20;;
3779;SDS011;1905;52.482;9.802;2023-03-20T08:41:58;28.03;;;11.20;;
3779;SDS011;1905;52.482;9.802;2023-03-20T08:44:26;20.20;;;9.30;;
3779;SDS011;1905;52.482;9.802;2023-03-20T08:46:54;18.47;;;9.87;;
3779;SDS011;1905;52.482;9.802;2023-03-20T08:49:21;17.20;;;9.00;;
3779;SDS011;1905;52.482;9.802;2023-03-20T08:51:50;22.73;;;11.63;;
3779;SDS011;1905;52.482;9.802;2023-03-20T08:54:18;17.30;;;9.10;;
3779;SDS011;1905;52.482;9.802;2023-03-20T08:56:45;18.00;;;9.40;;
3779;SDS011;1905;52.482;9.802;2023-03-20T08:59:13;17.97;;;9.83;;
3779;SDS011;1905;52.482;9.802;2023-03-20T09:01:40;15.73;;;8.30;;
3779;SDS011;1905;52.482;9.802;2023-03-20T09:04:15;15.10;;;7.90;;
3779;SDS011;1905;52.482;9.802;2023-03-20T09:06:43;14.67;;;8.33;;
3779;SDS011;1905;52.482;9.802;2023-03-20T09:09:11;18.63;;;7.77;;
3779;SDS011;1905;52.482;9.802;2023-03-20T09:11:41;17.27;;;7.50;;
3779;SDS011;1905;52.482;9.802;2023-03-20T09:14:09;11.90;;;7.47;;
3779;SDS011;1905;52.482;9.802;2023-03-20T09:16:37;14.37;;;6.23;;
3779;SDS011;1905;52.482;9.802;2023-03-20T09:19:04;16.93;;;6.90;;
3779;SDS011;1905;52.482;9.802;2023-03-20T09:21:32;15.03;;;7.37;;
3779;SDS011;1905;52.482;9.802;2023-03-20T09:23:59;14.40;;;7.43;;
3779;SDS011;1905;52.482;9.802;2023-03-20T09:26:28;16.27;;;8.83;;
3779;SDS011;1905;52.482;9.802;2023-03-20T09:28:56;17.70;;;8.40;;
3779;SDS011;1905;52.482;9.802;2023-03-20T09:31:23;13.20;;;8.07;;
3779;SDS011;1905;52.482;9.802;2023-03-20T09:33:51;14.83;;;8.43;;
3779;SDS011;1905;52.482;9.802;2023-03-20T09:36:18;17.70;;;8.30;;
3779;SDS011;1905;52.482;9.802;2023-03-20T09:38:46;13.90;;;7.67;;
3779;SDS011;1905;52.482;9.802;2023-03-20T09:41:15;19.87;;;11.87;;
3779;SDS011;1905;52.482;9.802;2023-03-20T09:43:51;20.40;;;10.80;;
3779;SDS011;1905;52.482;9.802;2023-03-20T09:46:31;26.90;;;13.23;;
3779;SDS011;1905;52.482;9.802;2023-03-20T09:49:16;17.70;;;8.77;;
3779;SDS011;1905;52.482;9.802;2023-03-20T09:51:52;18.00;;;10.50;;
3779;SDS011;1905;52.482;9.802;2023-03-20T09:54:23;18.90;;;9.70;;
3779;SDS011;1905;52.482;9.802;2023-03-20T09:56:54;24.47;;;9.50;;
3779;SDS011;1905;52.482;9.802;2023-03-20T09:59:24;16.37;;;8.80;;
3779;SDS011;1905;52.482;9.802;2023-03-20T10:01:54;17.13;;;7.80;;
3779;SDS011;1905;52.482;9.802;2023-03-20T10:04:27;17.57;;;8.80;;
3779;SDS011;1905;52.482;9.802;2023-03-20T10:06:55;15.40;;;8.60;;
3779;SDS011;1905;52.482;9.802;2023-03-20T10:09:24;15.77;;;9.90;;
3779;SDS011;1905;52.482;9.802;2023-03-20T10:12:00;15.57;;;8.77;;
3779;SDS011;1905;52.482;9.802;2023-03-20T10:14:39;13.07;;;7.90;;
3779;SDS011;1905;52.482;9.802;2023-03-20T10:17:20;17.43;;;9.43;;
3779;SDS011;1905;52.482;9.802;2023-03-20T10:19:56;15.50;;;8.50;;
3779;SDS011;1905;52.482;9.802;2023-03-20T10:22:26;14.17;;;8.07;;
3779;SDS011;1905;52.482;9.802;2023-03-20T10:25:00;15.63;;;7.73;;
3779;SDS011;1905;52.482;9.802;2023-03-20T10:27:35;18.63;;;8.40;;
3779;SDS011;1905;52.482;9.802;2023-03-20T10:30:13;19.47;;;9.23;;
3779;SDS011;1905;52.482;9.802;2023-03-20T10:32:54;15.90;;;7.33;;
3779;SDS011;1905;52.482;9.802;2023-03-20T10:35:36;13.23;;;8.40;;
3779;SDS011;1905;52.482;9.802;2023-03-20T10:38:12;13.07;;;6.93;;
3779;SDS011;1905;52.482;9.802;2023-03-20T10:40:47;12.03;;;6.77;;
3779;SDS011;1905;52.482;9.802;2023-03-20T10:43:15;9.77;;;6.13;;
3779;SDS011;1905;52.482;9.802;2023-03-20T10:45:49;5.67;;;4.40;;
3779;SDS011;1905;52.482;9.802;2023-03-20T10:48:20;7.17;;;4.77;;
3779;SDS011;1905;52.482;9.802;2023-03-20T10:50:52;7.57;;;5.13;;
3779;SDS011;1905;52.482;9.802;2023-03-20T10:53:29;9.47;;;5.37;;
3779;SDS011;1905;52.482;9.802;2023-03-20T10:56:02;10.27;;;6.70;;
3779;SDS011;1905;52.482;9.802;2023-03-20T10:58:34;11.93;;;5.97;;
3779;SDS011;1905;52.482;9.802;2023-03-20T11:01:06;8.27;;;5.50;;
3779;SDS011;1905;52.482;9.802;2023-03-20T11:03:34;5.40;;;4.33;;
3779;SDS011;1905;52.482;9.802;2023-03-20T11:06:05;8.40;;;4.40;;
3779;SDS011;1905;52.482;9.802;2023-03-20T11:08:40;6.73;;;4.13;;
3779;SDS011;1905;52.482;9.802;2023-03-20T11:11:09;7.10;;;4.40;;
3779;SDS011;1905;52.482;9.802;2023-03-20T11:13:37;6.23;;;4.27;;
3779;SDS011;1905;52.482;9.802;2023-03-20T11:16:09;6.70;;;4.10;;
3779;SDS011;1905;52.482;9.802;2023-03-20T11:18:41;8.53;;;4.20;;
3779;SDS011;1905;52.482;9.802;2023-03-20T11:21:13;6.80;;;4.00;;
3779;SDS011;1905;52.482;9.802;2023-03-20T11:23:42;7.10;;;4.43;;
3779;SDS011;1905;52.482;9.802;2023-03-20T11:26:11;9.23;;;4.23;;
3779;SDS011;1905;52.482;9.802;2023-03-20T11:28:46;6.83;;;4.13;;
3779;SDS011;1905;52.482;9.802;2023-03-20T11:31:17;6.07;;;3.90;;
3779;SDS011;1905;52.482;9.802;2023-03-20T11:33:50;5.93;;;4.10;;
3779;SDS011;1905;52.482;9.802;2023-03-20T11:36:21;6.50;;;3.70;;
3779;SDS011;1905;52.482;9.802;2023-03-20T11:38:54;6.53;;;3.83;;
3779;SDS011;1905;52.482;9.802;2023-03-20T11:41:27;5.23;;;4.00;;
3779;SDS011;1905;52.482;9.802;2023-03-20T11:43:55;7.13;;;4.10;;
3779;SDS011;1905;52.482;9.802;2023-03-20T11:46:24;6.10;;;3.27;;
3779;SDS011;1905;52.482;9.802;2023-03-20T11:49:05;4.90;;;3.27;;
3779;SDS011;1905;52.482;9.802;2023-03-20T11:51:43;4.30;;;3.43;;
3779;SDS011;1905;52.482;9.802;2023-03-20T11:54:35;5.27;;;3.80;;
3779;SDS011;1905;52.482;9.802;2023-03-20T11:57:03;4.60;;;4.13;;
3779;SDS011;1905;52.482;9.802;2023-03-20T11:59:32;6.90;;;4.30;;
3779;SDS011;1905;52.482;9.802;2023-03-20T12:02:03;5.30;;;4.10;;
3779;SDS011;1905;52.482;9.802;2023-03-20T12:04:44;10.70;;;3.47;;
3779;SDS011;1905;52.482;9.802;2023-03-20T12:07:13;4.83;;;3.47;;
3779;SDS011;1905;52.482;9.802;2023-03-20T12:09:46;9.53;;;3.90;;
3779;SDS011;1905;52.482;9.802;2023-03-20T12:12:20;6.27;;;3.70;;
3779;SDS011;1905;52.482;9.802;2023-03-20T12:15:06;5.33;;;4.23;;
3779;SDS011;1905;52.482;9.802;2023-03-20T12:17:51;4.47;;;3.63;;
3779;SDS011;1905;52.482;9.802;2023-03-20T12:20:23;7.80;;;4.67;;
3779;SDS011;1905;52.482;9.802;2023-03-20T12:22:58;5.87;;;3.57;;
3779;SDS011;1905;52.482;9.802;2023-03-20T12:25:34;5.37;;;3.50;;
3779;SDS011;1905;52.482;9.802;2023-03-20T12:28:10;8.20;;;3.70;;
3779;SDS011;1905;52.482;9.802;2023-03-20T12:30:54;5.57;;;5.00;;
3779;SDS011;1905;52.482;9.802;2023-03-20T12:33:36;4.80;;;4.30;;
3779;SDS011;1905;52.482;9.802;2023-03-20T12:36:11;5.93;;;3.90;;
3779;SDS011;1905;52.482;9.802;2023-03-20T12:38:42;3.73;;;3.33;;
3779;SDS011;1905;52.482;9.802;2023-03-20T12:41:12;3.70;;;3.17;;
3779;SDS011;1905;52.482;9.802;2023-03-20T12:43:46;5.50;;;3.80;;
3779;SDS011;1905;52.482;9.802;2023-03-20T12:46:28;6.23;;;4.90;;
3779;SDS011;1905;52.482;9.802;2023-03-20T12:49:09;6.50;;;4.30;;
3779;SDS011;1905;52.482;9.802;2023-03-20T12:51:48;4.20;;;3.50;;
3779;SDS011;1905;52.482;9.802;2023-03-20T12:54:27;6.10;;;4.27;;
3779;SDS011;1905;52.482;9.802;2023-03-20T12:57:05;6.13;;;4.07;;
3779;SDS011;1905;52.482;9.802;2023-03-20T12:59:45;5.23;;;3.73;;
3779;SDS011;1905;52.482;9.802;2023-03-20T13:02:40;3.80;;;3.47;;
3779;SDS011;1905;52.482;9.802;2023-03-20T13:05:21;5.53;;;4.10;;
3779;SDS011;1905;52.482;9.802;2023-03-20T13:08:01;5.43;;;3.90;;
3779;SDS011;1905;52.482;9.802;2023-03-20T13:10:39;5.00;;;4.37;;
3779;SDS011;1905;52.482;9.802;2023-03-20T13:13:10;3.83;;;3.53;;
3779;SDS011;1905;52.482;9.802;2023-03-20T13:15:49;4.77;;;4.07;;
3779;SDS011;1905;52.482;9.802;2023-03-20T13:18:28;4.30;;;3.23;;
3779;SDS011;1905;52.482;9.802;2023-03-20T13:21:06;4.07;;;3.67;;
3779;SDS011;1905;52.482;9.802;2023-03-20T13:23:38;4.43;;;3.40;;
3779;SDS011;1905;52.482;9.802;2023-03-20T13:26:12;7.63;;;4.97;;
3779;SDS011;1905;52.482;9.802;2023-03-20T13:28:52;4.50;;;3.13;;
3779;SDS011;1905;52.482;9.802;2023-03-20T13:31:27;4.23;;;3.60;;
3779;SDS011;1905;52.482;9.802;2023-03-20T13:34:09;7.80;;;4.33;;
3779;SDS011;1905;52.482;9.802;2023-03-20T13:36:53;3.43;;;3.13;;
3779;SDS011;1905;52.482;9.802;2023-03-20T13:39:57;4.50;;;3.70;;
3779;SDS011;1905;52.482;9.802;2023-03-20T13:42:30;4.20;;;3.70;;
3779;SDS011;1905;52.482;9.802;2023-03-20T13:45:04;4.13;;;3.77;;
3779;SDS011;1905;52.482;9.802;2023-03-20T13:47:33;7.33;;;3.23;;
3779;SDS011;1905;52.482;9.802;2023-03-20T13:50:06;3.43;;;2.90;;
3779;SDS011;1905;52.482;9.802;2023-03-20T13:52:46;6.60;;;3.53;;
3779;SDS011;1905;52.482;9.802;2023-03-20T13:55:20;5.07;;;3.90;;
3779;SDS011;1905;52.482;9.802;2023-03-20T13:58:00;4.37;;;3.27;;
3779;SDS011;1905;52.482;9.802;2023-03-20T14:00:37;8.33;;;3.37;;
3779;SDS011;1905;52.482;9.802;2023-03-20T14:03:17;6.80;;;3.93;;
3779;SDS011;1905;52.482;9.802;2023-03-20T14:05:46;4.43;;;3.60;;
3779;SDS011;1905;52.482;9.802;2023-03-20T14:08:23;3.47;;;2.60;;
3779;SDS011;1905;52.482;9.802;2023-03-20T14:13:58;3.40;;;3.10;;
3779;SDS011;1905;52.482;9.802;2023-03-20T14:16:32;4.50;;;3.10;;
3779;SDS011;1905;52.482;9.802;2023-03-20T14:19:04;5.77;;;3.50;;
3779;SDS011;1905;52.482;9.802;2023-03-20T14:21:36;3.70;;;2.73;;
3779;SDS011;1905;52.482;9.802;2023-03-20T14:24:05;4.87;;;2.93;;
3779;SDS011;1905;52.482;9.802;2023-03-20T14:26:39;3.43;;;2.90;;
3779;SDS011;1905;52.482;9.802;2023-03-20T14:29:19;5.53;;;3.67;;
3779;SDS011;1905;52.482;9.802;2023-03-20T14:32:01;3.97;;;3.10;;
3779;SDS011;1905;52.482;9.802;2023-03-20T14:34:49;7.70;;;3.10;;
3779;SDS011;1905;52.482;9.802;2023-03-20T14:37:26;6.73;;;2.90;;
3779;SDS011;1905;52.482;9.802;2023-03-20T14:39:58;3.30;;;3.00;;
3779;SDS011;1905;52.482;9.802;2023-03-20T14:42:38;4.80;;;2.83;;
3779;SDS011;1905;52.482;9.802;2023-03-20T14:45:26;4.63;;;2.90;;
3779;SDS011;1905;52.482;9.802;2023-03-20T14:47:59;3.47;;;2.70;;
3779;SDS011;1905;52.482;9.802;2023-03-20T14:50:33;6.03;;;2.70;;
3779;SDS011;1905;52.482;9.802;2023-03-20T14:53:08;7.73;;;3.20;;
3779;SDS011;1905;52.482;9.802;2023-03-20T14:55:56;4.27;;;2.93;;
3779;SDS011;1905;52.482;9.802;2023-03-20T14:58:34;4.60;;;2.53;;
3779;SDS011;1905;52.482;9.802;2023-03-20T15:01:17;4.50;;;2.73;;
3779;SDS011;1905;52.482;9.802;2023-03-20T15:03:51;7.43;;;3.20;;
3779;SDS011;1905;52.482;9.802;2023-03-20T15:06:23;4.90;;;2.70;;
3779;SDS011;1905;52.482;9.802;2023-03-20T15:08:53;3.43;;;2.40;;
3779;SDS011;1905;52.482;9.802;2023-03-20T15:11:25;3.10;;;2.60;;
3779;SDS011;1905;52.482;9.802;2023-03-20T15:13:53;4.33;;;2.60;;
3779;SDS011;1905;52.482;9.802;2023-03-20T15:16:25;6.03;;;2.20;;
3779;SDS011;1905;52.482;9.802;2023-03-20T15:18:55;2.77;;;2.57;;
3779;SDS011;1905;52.482;9.802;2023-03-20T15:21:27;6.13;;;3.10;;
3779;SDS011;1905;52.482;9.802;2023-03-20T15:23:57;12.17;;;3.83;;
3779;SDS011;1905;52.482;9.802;2023-03-20T15:26:26;3.10;;;2.53;;
3779;SDS011;1905;52.482;9.802;2023-03-20T15:28:58;4.13;;;3.30;;
3779;SDS011;1905;52.482;9.802;2023-03-20T15:31:28;6.43;;;2.77;;
3779;SDS011;1905;52.482;9.802;2023-03-20T15:33:58;4.20;;;3.17;;
3779;SDS011;1905;52.482;9.802;2023-03-20T15:36:28;10.67;;;3.60;;
3779;SDS011;1905;52.482;9.802;2023-03-20T15:39:05;3.50;;;3.07;;
3779;SDS011;1905;52.482;9.802;2023-03-20T15:41:42;6.40;;;3.83;;
3779;SDS011;1905;52.482;9.802;2023-03-20T15:44:14;7.43;;;3.40;;
3779;SDS011;1905;52.482;9.802;2023-03-20T15:46:54;7.43;;;3.37;;
3779;SDS011;1905;52.482;9.802;2023-03-20T15:49:25;5.50;;;3.90;;